sensor_id;sensor_type;location;lat;lon;timestamp;P1;durP1;ratioP1;P2;durP2;ratioP2
22786;SDS011;63134;52.020;4.714;2023-09-07T00:00:52;1.02;;;1.00;;
22786;SDS011;63134;52.020;4.714;2023-09-07T00:03:38;1.17;;;1.08;;
22786;SDS011;63134;52.020;4.714;2023-09-07T00:06:27;0.90;;;0.90;;
22786;SDS011;63134;52.020;4.714;2023-09-07T00:09:16;0.93;;;0.90;;
22786;SDS011;63134;52.020;4.714;2023-09-07T00:12:03;1.05;;;1.05;;
22786;SDS011;63134;52.020;4.714;2023-09-07T00:14:48;0.85;;;0.80;;
22786;SDS011;63134;52.020;4.714;2023-09-07T00:17:34;0.90;;;0.90;;
22786;SDS011;63134;52.020;4.714;2023-09-07T00:20:20;0.93;;;0.93;;
22786;SDS011;63134;52.020;4.714;2023-09-07T00:23:06;0.90;;;0.90;;
22786;SDS011;63134;52.020;4.714;2023-09-07T00:25:51;1.20;;;1.10;;
22786;SDS011;63134;52.020;4.714;2023-09-07T00:28:37;0.65;;;0.65;;
22786;SDS011;63134;52.020;4.714;2023-09-07T00:31:23;0.80;;;0.80;;
22786;SDS011;63134;52.020;4.714;2023-09-07T00:34:13;0.90;;;0.90;;
22786;SDS011;63134;52.020;4.714;2023-09-07T00:37:12;0.80;;;0.80;;
22786;SDS011;63134;52.020;4.714;2023-09-07T00:39:57;1.00;;;0.90;;
22786;SDS011;63134;52.020;4.714;2023-09-07T00:42:43;0.85;;;0.85;;
22786;SDS011;63134;52.020;4.714;2023-09-07T00:45:28;0.70;;;0.70;;
22786;SDS011;63134;52.020;4.714;2023-09-07T00:48:15;0.70;;;0.70;;
22786;SDS011;63134;52.020;4.714;2023-09-07T00:51:04;0.85;;;0.80;;
22786;SDS011;63134;52.020;4.714;2023-09-07T00:53:50;0.80;;;0.80;;
22786;SDS011;63134;52.020;4.714;2023-09-07T00:56:40;1.00;;;1.00;;
22786;SDS011;63134;52.020;4.714;2023-09-07T00:59:27;0.88;;;0.88;;
22786;SDS011;63134;52.020;4.714;2023-09-07T01:02:14;0.95;;;0.93;;
22786;SDS011;63134;52.020;4.714;2023-09-07T01:05:03;0.80;;;0.80;;
22786;SDS011;63134;52.020;4.714;2023-09-07T01:07:53;0.70;;;0.70;;
22786;SDS011;63134;52.020;4.714;2023-09-07T01:10:43;0.90;;;0.90;;
22786;SDS011;63134;52.020;4.714;2023-09-07T01:13:28;1.20;;;1.10;;
22786;SDS011;63134;52.020;4.714;2023-09-07T01:16:14;1.20;;;1.10;;
22786;SDS011;63134;52.020;4.714;2023-09-07T01:19:00;1.30;;;1.20;;
22786;SDS011;63134;52.020;4.714;2023-09-07T01:21:46;1.15;;;1.05;;
22786;SDS011;63134;52.020;4.714;2023-09-07T01:24:36;1.10;;;1.00;;
22786;SDS011;63134;52.020;4.714;2023-09-07T01:27:23;0.90;;;0.90;;
22786;SDS011;63134;52.020;4.714;2023-09-07T01:30:10;1.10;;;1.00;;
22786;SDS011;63134;52.020;4.714;2023-09-07T01:32:58;0.80;;;0.80;;
22786;SDS011;63134;52.020;4.714;2023-09-07T01:35:44;1.20;;;1.10;;
22786;SDS011;63134;52.020;4.714;2023-09-07T01:38:30;1.02;;;1.00;;
22786;SDS011;63134;52.020;4.714;2023-09-07T01:41:19;1.23;;;1.13;;
22786;SDS011;63134;52.020;4.714;2023-09-07T01:44:06;0.82;;;0.82;;
22786;SDS011;63134;52.020;4.714;2023-09-07T01:46:52;0.80;;;0.80;;
22786;SDS011;63134;52.020;4.714;2023-09-07T01:49:40;0.95;;;0.95;;
22786;SDS011;63134;52.020;4.714;2023-09-07T01:52:25;1.17;;;1.08;;
22786;SDS011;63134;52.020;4.714;2023-09-07T01:55:14;1.13;;;1.00;;
22786;SDS011;63134;52.020;4.714;2023-09-07T01:57:59;0.82;;;0.82;;
22786;SDS011;63134;52.020;4.714;2023-09-07T02:00:46;0.82;;;0.82;;
22786;SDS011;63134;52.020;4.714;2023-09-07T02:03:31;1.30;;;1.20;;
22786;SDS011;63134;52.020;4.714;2023-09-07T02:06:17;1.20;;;1.10;;
22786;SDS011;63134;52.020;4.714;2023-09-07T02:09:03;1.25;;;1.15;;
22786;SDS011;63134;52.020;4.714;2023-09-07T02:11:50;1.45;;;1.35;;
22786;SDS011;63134;52.020;4.714;2023-09-07T02:14:38;1.50;;;1.40;;
22786;SDS011;63134;52.020;4.714;2023-09-07T02:17:25;1.48;;;1.15;;
22786;SDS011;63134;52.020;4.714;2023-09-07T02:20:11;1.55;;;1.45;;
22786;SDS011;63134;52.020;4.714;2023-09-07T02:22:57;1.30;;;1.20;;
22786;SDS011;63134;52.020;4.714;2023-09-07T02:25:42;1.58;;;1.40;;
22786;SDS011;63134;52.020;4.714;2023-09-07T02:28:28;1.30;;;1.20;;
22786;SDS011;63134;52.020;4.714;2023-09-07T02:31:17;1.40;;;1.30;;
22786;SDS011;63134;52.020;4.714;2023-09-07T02:34:02;1.60;;;1.50;;
22786;SDS011;63134;52.020;4.714;2023-09-07T02:36:49;1.38;;;1.27;;
22786;SDS011;63134;52.020;4.714;2023-09-07T02:39:35;1.40;;;1.30;;
22786;SDS011;63134;52.020;4.714;2023-09-07T02:42:21;1.27;;;1.17;;
22786;SDS011;63134;52.020;4.714;2023-09-07T02:45:11;1.42;;;1.33;;
22786;SDS011;63134;52.020;4.714;2023-09-07T02:47:58;1.05;;;1.02;;
22786;SDS011;63134;52.020;4.714;2023-09-07T02:50:43;1.15;;;1.05;;
22786;SDS011;63134;52.020;4.714;2023-09-07T02:53:33;1.30;;;1.20;;
22786;SDS011;63134;52.020;4.714;2023-09-07T02:56:19;1.30;;;1.20;;
22786;SDS011;63134;52.020;4.714;2023-09-07T02:59:05;1.40;;;1.30;;
22786;SDS011;63134;52.020;4.714;2023-09-07T03:01:51;1.42;;;1.33;;
22786;SDS011;63134;52.020;4.714;2023-09-07T03:04:36;1.55;;;1.33;;
22786;SDS011;63134;52.020;4.714;2023-09-07T03:07:22;1.40;;;1.30;;
22786;SDS011;63134;52.020;4.714;2023-09-07T03:10:08;1.50;;;1.00;;
22786;SDS011;63134;52.020;4.714;2023-09-07T03:12:54;1.33;;;1.23;;
22786;SDS011;63134;52.020;4.714;2023-09-07T03:15:40;1.27;;;1.17;;
22786;SDS011;63134;52.020;4.714;2023-09-07T03:18:29;1.27;;;1.17;;
22786;SDS011;63134;52.020;4.714;2023-09-07T03:21:16;1.40;;;1.30;;
22786;SDS011;63134;52.020;4.714;2023-09-07T03:24:02;1.60;;;1.50;;
22786;SDS011;63134;52.020;4.714;2023-09-07T03:26:51;1.60;;;1.50;;
22786;SDS011;63134;52.020;4.714;2023-09-07T03:29:40;1.50;;;1.40;;
22786;SDS011;63134;52.020;4.714;2023-09-07T03:32:26;1.70;;;1.60;;
22786;SDS011;63134;52.020;4.714;2023-09-07T03:35:17;1.70;;;1.35;;
22786;SDS011;63134;52.020;4.714;2023-09-07T03:38:03;1.40;;;1.30;;
22786;SDS011;63134;52.020;4.714;2023-09-07T03:40:49;1.50;;;1.40;;
22786;SDS011;63134;52.020;4.714;2023-09-07T03:43:37;1.80;;;1.70;;
22786;SDS011;63134;52.020;4.714;2023-09-07T03:46:22;1.90;;;1.80;;
22786;SDS011;63134;52.020;4.714;2023-09-07T03:49:09;1.80;;;1.70;;
22786;SDS011;63134;52.020;4.714;2023-09-07T03:51:59;2.13;;;1.95;;
22786;SDS011;63134;52.020;4.714;2023-09-07T03:54:45;1.90;;;1.75;;
22786;SDS011;63134;52.020;4.714;2023-09-07T03:57:31;1.95;;;1.85;;
22786;SDS011;63134;52.020;4.714;2023-09-07T04:00:17;2.03;;;1.83;;
22786;SDS011;63134;52.020;4.714;2023-09-07T04:03:06;1.73;;;1.58;;
22786;SDS011;63134;52.020;4.714;2023-09-07T04:05:53;1.70;;;1.60;;
22786;SDS011;63134;52.020;4.714;2023-09-07T04:08:41;2.00;;;1.90;;
22786;SDS011;63134;52.020;4.714;2023-09-07T04:11:29;2.15;;;1.73;;
22786;SDS011;63134;52.020;4.714;2023-09-07T04:14:15;1.33;;;1.23;;
22786;SDS011;63134;52.020;4.714;2023-09-07T04:17:03;1.52;;;1.42;;
22786;SDS011;63134;52.020;4.714;2023-09-07T04:19:49;1.30;;;1.20;;
22786;SDS011;63134;52.020;4.714;2023-09-07T04:22:34;1.00;;;1.00;;
22786;SDS011;63134;52.020;4.714;2023-09-07T04:25:21;1.52;;;1.42;;
22786;SDS011;63134;52.020;4.714;2023-09-07T04:28:07;1.38;;;1.27;;
22786;SDS011;63134;52.020;4.714;2023-09-07T04:30:53;1.33;;;1.23;;
22786;SDS011;63134;52.020;4.714;2023-09-07T04:33:39;2.10;;;1.60;;
22786;SDS011;63134;52.020;4.714;2023-09-07T04:36:34;1.85;;;1.63;;
22786;SDS011;63134;52.020;4.714;2023-09-07T04:39:20;1.70;;;1.60;;
22786;SDS011;63134;52.020;4.714;2023-09-07T04:42:06;1.52;;;1.42;;
22786;SDS011;63134;52.020;4.714;2023-09-07T04:44:52;2.83;;;1.25;;
22786;SDS011;63134;52.020;4.714;2023-09-07T04:47:37;1.50;;;1.40;;
22786;SDS011;63134;52.020;4.714;2023-09-07T04:50:23;1.80;;;1.70;;
22786;SDS011;63134;52.020;4.714;2023-09-07T04:53:09;1.60;;;1.50;;
22786;SDS011;63134;52.020;4.714;2023-09-07T04:55:55;1.83;;;1.73;;
22786;SDS011;63134;52.020;4.714;2023-09-07T04:58:42;1.90;;;1.75;;
22786;SDS011;63134;52.020;4.714;2023-09-07T05:01:27;1.85;;;1.75;;
22786;SDS011;63134;52.020;4.714;2023-09-07T05:04:14;1.38;;;1.27;;
22786;SDS011;63134;52.020;4.714;2023-09-07T05:07:00;1.67;;;1.58;;
22786;SDS011;63134;52.020;4.714;2023-09-07T05:09:45;1.88;;;1.77;;
22786;SDS011;63134;52.020;4.714;2023-09-07T05:12:34;1.45;;;1.35;;
22786;SDS011;63134;52.020;4.714;2023-09-07T05:15:20;1.40;;;1.30;;
22786;SDS011;63134;52.020;4.714;2023-09-07T05:18:05;1.80;;;1.70;;
22786;SDS011;63134;52.020;4.714;2023-09-07T05:20:51;1.63;;;1.52;;
22786;SDS011;63134;52.020;4.714;2023-09-07T05:23:37;2.10;;;1.90;;
22786;SDS011;63134;52.020;4.714;2023-09-07T05:26:23;1.58;;;1.48;;
22786;SDS011;63134;52.020;4.714;2023-09-07T05:29:11;2.10;;;1.77;;
22786;SDS011;63134;52.020;4.714;2023-09-07T05:31:58;1.83;;;1.73;;
22786;SDS011;63134;52.020;4.714;2023-09-07T05:34:48;2.00;;;1.80;;
22786;SDS011;63134;52.020;4.714;2023-09-07T05:37:33;2.03;;;1.83;;
22786;SDS011;63134;52.020;4.714;2023-09-07T05:40:22;1.48;;;1.38;;
22786;SDS011;63134;52.020;4.714;2023-09-07T05:43:10;1.60;;;1.50;;
22786;SDS011;63134;52.020;4.714;2023-09-07T05:45:59;1.65;;;1.55;;
22786;SDS011;63134;52.020;4.714;2023-09-07T05:48:45;2.25;;;1.95;;
22786;SDS011;63134;52.020;4.714;2023-09-07T05:51:32;2.00;;;1.90;;
22786;SDS011;63134;52.020;4.714;2023-09-07T05:54:17;2.40;;;2.20;;
22786;SDS011;63134;52.020;4.714;2023-09-07T05:57:03;2.22;;;2.03;;
22786;SDS011;63134;52.020;4.714;2023-09-07T05:59:48;2.33;;;2.13;;
22786;SDS011;63134;52.020;4.714;2023-09-07T06:02:34;2.75;;;2.50;;
22786;SDS011;63134;52.020;4.714;2023-09-07T06:05:20;2.50;;;2.30;;
22786;SDS011;63134;52.020;4.714;2023-09-07T06:08:06;2.35;;;2.15;;
22786;SDS011;63134;52.020;4.714;2023-09-07T06:10:53;2.20;;;2.00;;
22786;SDS011;63134;52.020;4.714;2023-09-07T06:13:39;1.48;;;1.38;;
22786;SDS011;63134;52.020;4.714;2023-09-07T06:16:26;2.40;;;2.20;;
22786;SDS011;63134;52.020;4.714;2023-09-07T06:19:12;2.17;;;1.98;;
22786;SDS011;63134;52.020;4.714;2023-09-07T06:21:58;2.47;;;2.28;;
22786;SDS011;63134;52.020;4.714;2023-09-07T06:24:44;2.67;;;2.45;;
22786;SDS011;63134;52.020;4.714;2023-09-07T06:27:30;2.22;;;2.03;;
22786;SDS011;63134;52.020;4.714;2023-09-07T06:30:18;2.20;;;2.00;;
22786;SDS011;63134;52.020;4.714;2023-09-07T06:33:05;2.20;;;2.00;;
22786;SDS011;63134;52.020;4.714;2023-09-07T06:35:51;2.70;;;2.50;;
22786;SDS011;63134;52.020;4.714;2023-09-07T06:38:40;3.13;;;2.50;;
22786;SDS011;63134;52.020;4.714;2023-09-07T06:41:27;2.53;;;2.33;;
22786;SDS011;63134;52.020;4.714;2023-09-07T06:44:14;2.25;;;2.05;;
22786;SDS011;63134;52.020;4.714;2023-09-07T06:47:04;3.15;;;2.72;;
22786;SDS011;63134;52.020;4.714;2023-09-07T06:49:50;2.58;;;2.38;;
22786;SDS011;63134;52.020;4.714;2023-09-07T06:52:38;2.75;;;2.50;;
22786;SDS011;63134;52.020;4.714;2023-09-07T06:55:27;2.53;;;2.33;;
22786;SDS011;63134;52.020;4.714;2023-09-07T06:58:13;2.53;;;2.22;;
22786;SDS011;63134;52.020;4.714;2023-09-07T07:01:00;2.72;;;2.53;;
22786;SDS011;63134;52.020;4.714;2023-09-07T07:03:47;2.50;;;2.30;;
22786;SDS011;63134;52.020;4.714;2023-09-07T07:06:35;1.95;;;1.80;;
22786;SDS011;63134;52.020;4.714;2023-09-07T07:09:20;2.40;;;2.20;;
22786;SDS011;63134;52.020;4.714;2023-09-07T07:12:06;2.20;;;2.00;;
22786;SDS011;63134;52.020;4.714;2023-09-07T07:14:52;2.13;;;1.90;;
22786;SDS011;63134;52.020;4.714;2023-09-07T07:17:38;4.05;;;2.50;;
22786;SDS011;63134;52.020;4.714;2023-09-07T07:20:23;2.40;;;2.20;;
22786;SDS011;63134;52.020;4.714;2023-09-07T07:23:09;1.83;;;1.73;;
22786;SDS011;63134;52.020;4.714;2023-09-07T07:25:56;2.28;;;2.08;;
22786;SDS011;63134;52.020;4.714;2023-09-07T07:28:43;1.83;;;1.73;;
22786;SDS011;63134;52.020;4.714;2023-09-07T07:31:29;2.15;;;1.95;;
22786;SDS011;63134;52.020;4.714;2023-09-07T07:34:15;2.00;;;1.90;;
22786;SDS011;63134;52.020;4.714;2023-09-07T07:37:02;2.55;;;2.35;;
22786;SDS011;63134;52.020;4.714;2023-09-07T07:39:48;2.70;;;2.00;;
22786;SDS011;63134;52.020;4.714;2023-09-07T07:42:35;2.35;;;2.13;;
22786;SDS011;63134;52.020;4.714;2023-09-07T07:45:23;2.53;;;2.20;;
22786;SDS011;63134;52.020;4.714;2023-09-07T07:48:10;3.10;;;2.60;;
22786;SDS011;63134;52.020;4.714;2023-09-07T07:51:01;2.50;;;2.30;;
22786;SDS011;63134;52.020;4.714;2023-09-07T07:53:48;2.85;;;2.55;;
22786;SDS011;63134;52.020;4.714;2023-09-07T07:56:35;3.55;;;3.05;;
22786;SDS011;63134;52.020;4.714;2023-09-07T07:59:21;2.50;;;2.30;;
22786;SDS011;63134;52.020;4.714;2023-09-07T08:02:06;2.33;;;2.13;;
22786;SDS011;63134;52.020;4.714;2023-09-07T08:04:52;3.35;;;2.60;;
22786;SDS011;63134;52.020;4.714;2023-09-07T08:07:38;2.72;;;2.22;;
22786;SDS011;63134;52.020;4.714;2023-09-07T08:10:24;2.17;;;1.98;;
22786;SDS011;63134;52.020;4.714;2023-09-07T08:13:14;2.97;;;2.60;;
22786;SDS011;63134;52.020;4.714;2023-09-07T08:16:00;2.40;;;2.20;;
22786;SDS011;63134;52.020;4.714;2023-09-07T08:18:46;2.80;;;2.60;;
22786;SDS011;63134;52.020;4.714;2023-09-07T08:21:33;1.92;;;1.83;;
22786;SDS011;63134;52.020;4.714;2023-09-07T08:24:20;2.47;;;2.25;;
22786;SDS011;63134;52.020;4.714;2023-09-07T08:27:06;2.80;;;2.45;;
22786;SDS011;63134;52.020;4.714;2023-09-07T08:30:01;2.63;;;2.33;;
22786;SDS011;63134;52.020;4.714;2023-09-07T08:32:47;2.38;;;2.17;;
22786;SDS011;63134;52.020;4.714;2023-09-07T08:35:36;2.58;;;2.38;;
22786;SDS011;63134;52.020;4.714;2023-09-07T08:38:29;2.90;;;2.60;;
22786;SDS011;63134;52.020;4.714;2023-09-07T08:41:16;2.67;;;2.42;;
22786;SDS011;63134;52.020;4.714;2023-09-07T08:44:02;2.40;;;2.15;;
22786;SDS011;63134;52.020;4.714;2023-09-07T08:46:52;2.65;;;2.45;;
22786;SDS011;63134;52.020;4.714;2023-09-07T08:49:38;2.30;;;2.10;;
22786;SDS011;63134;52.020;4.714;2023-09-07T08:52:24;2.55;;;2.35;;
22786;SDS011;63134;52.020;4.714;2023-09-07T08:55:15;2.80;;;2.35;;
22786;SDS011;63134;52.020;4.714;2023-09-07T08:58:04;3.03;;;2.30;;
22786;SDS011;63134;52.020;4.714;2023-09-07T09:00:50;2.20;;;2.00;;
22786;SDS011;63134;52.020;4.714;2023-09-07T09:03:37;2.90;;;1.95;;
22786;SDS011;63134;52.020;4.714;2023-09-07T09:06:23;2.65;;;2.42;;
22786;SDS011;63134;52.020;4.714;2023-09-07T09:09:11;2.70;;;2.10;;
22786;SDS011;63134;52.020;4.714;2023-09-07T09:12:08;1.80;;;1.70;;
22786;SDS011;63134;52.020;4.714;2023-09-07T09:14:58;1.80;;;1.70;;
22786;SDS011;63134;52.020;4.714;2023-09-07T09:17:46;2.08;;;1.88;;
22786;SDS011;63134;52.020;4.714;2023-09-07T09:20:32;1.98;;;1.88;;
22786;SDS011;63134;52.020;4.714;2023-09-07T09:23:18;2.97;;;2.50;;
22786;SDS011;63134;52.020;4.714;2023-09-07T09:26:04;2.40;;;2.17;;
22786;SDS011;63134;52.020;4.714;2023-09-07T09:28:50;3.92;;;2.25;;
22786;SDS011;63134;52.020;4.714;2023-09-07T09:31:38;3.05;;;2.30;;
22786;SDS011;63134;52.020;4.714;2023-09-07T09:34:24;2.50;;;2.05;;
22786;SDS011;63134;52.020;4.714;2023-09-07T09:37:13;3.33;;;3.03;;
22786;SDS011;63134;52.020;4.714;2023-09-07T09:40:04;3.45;;;2.47;;
22786;SDS011;63134;52.020;4.714;2023-09-07T09:42:50;3.78;;;3.30;;
22786;SDS011;63134;52.020;4.714;2023-09-07T09:45:40;2.63;;;2.35;;
22786;SDS011;63134;52.020;4.714;2023-09-07T09:48:25;2.88;;;2.42;;
22786;SDS011;63134;52.020;4.714;2023-09-07T09:51:16;2.97;;;2.58;;
22786;SDS011;63134;52.020;4.714;2023-09-07T09:54:04;2.67;;;2.30;;
22786;SDS011;63134;52.020;4.714;2023-09-07T09:56:54;3.83;;;2.80;;
22786;SDS011;63134;52.020;4.714;2023-09-07T09:59:39;3.25;;;2.40;;
22786;SDS011;63134;52.020;4.714;2023-09-07T10:02:25;4.18;;;2.42;;
22786;SDS011;63134;52.020;4.714;2023-09-07T10:05:11;4.03;;;2.17;;
22786;SDS011;63134;52.020;4.714;2023-09-07T10:08:00;2.28;;;2.08;;
22786;SDS011;63134;52.020;4.714;2023-09-07T10:10:53;2.60;;;2.40;;
22786;SDS011;63134;52.020;4.714;2023-09-07T10:13:40;2.90;;;2.45;;
22786;SDS011;63134;52.020;4.714;2023-09-07T10:16:26;2.60;;;2.22;;
22786;SDS011;63134;52.020;4.714;2023-09-07T10:19:20;2.47;;;2.28;;
22786;SDS011;63134;52.020;4.714;2023-09-07T10:22:20;3.00;;;2.30;;
22786;SDS011;63134;52.020;4.714;2023-09-07T10:25:17;2.60;;;2.22;;
22786;SDS011;63134;52.020;4.714;2023-09-07T10:28:05;2.40;;;2.15;;
22786;SDS011;63134;52.020;4.714;2023-09-07T10:31:03;2.80;;;2.25;;
22786;SDS011;63134;52.020;4.714;2023-09-07T10:34:10;2.33;;;2.13;;
22786;SDS011;63134;52.020;4.714;2023-09-07T10:37:00;2.72;;;2.30;;
22786;SDS011;63134;52.020;4.714;2023-09-07T10:39:46;3.60;;;2.20;;
22786;SDS011;63134;52.020;4.714;2023-09-07T10:42:32;5.15;;;2.20;;
22786;SDS011;63134;52.020;4.714;2023-09-07T10:45:17;3.13;;;2.42;;
22786;SDS011;63134;52.020;4.714;2023-09-07T10:48:03;2.10;;;1.90;;
22786;SDS011;63134;52.020;4.714;2023-09-07T10:50:49;2.60;;;2.10;;
22786;SDS011;63134;52.020;4.714;2023-09-07T10:53:36;2.17;;;1.98;;
22786;SDS011;63134;52.020;4.714;2023-09-07T10:56:24;2.10;;;1.80;;
22786;SDS011;63134;52.020;4.714;2023-09-07T10:59:17;2.15;;;1.90;;
22786;SDS011;63134;52.020;4.714;2023-09-07T11:02:06;2.00;;;1.80;;
22786;SDS011;63134;52.020;4.714;2023-09-07T11:04:52;2.10;;;1.80;;
22786;SDS011;63134;52.020;4.714;2023-09-07T11:07:38;2.55;;;1.88;;
22786;SDS011;63134;52.020;4.714;2023-09-07T11:10:25;3.75;;;2.00;;
22786;SDS011;63134;52.020;4.714;2023-09-07T11:13:11;2.85;;;2.00;;
22786;SDS011;63134;52.020;4.714;2023-09-07T11:15:57;2.42;;;2.10;;
22786;SDS011;63134;52.020;4.714;2023-09-07T11:18:50;1.85;;;1.73;;
22786;SDS011;63134;52.020;4.714;2023-09-07T11:21:36;3.00;;;2.17;;
22786;SDS011;63134;52.020;4.714;2023-09-07T11:24:22;2.22;;;2.03;;
22786;SDS011;63134;52.020;4.714;2023-09-07T11:27:08;2.75;;;2.03;;
22786;SDS011;63134;52.020;4.714;2023-09-07T11:29:55;1.80;;;1.50;;
22786;SDS011;63134;52.020;4.714;2023-09-07T11:32:41;1.83;;;1.73;;
22786;SDS011;63134;52.020;4.714;2023-09-07T11:35:31;2.47;;;2.00;;
22786;SDS011;63134;52.020;4.714;2023-09-07T11:38:18;3.08;;;1.98;;
22786;SDS011;63134;52.020;4.714;2023-09-07T11:41:04;3.28;;;1.75;;
22786;SDS011;63134;52.020;4.714;2023-09-07T11:43:50;1.95;;;1.70;;
22786;SDS011;63134;52.020;4.714;2023-09-07T11:46:36;1.50;;;1.40;;
22786;SDS011;63134;52.020;4.714;2023-09-07T11:49:22;2.10;;;1.90;;
22786;SDS011;63134;52.020;4.714;2023-09-07T11:52:10;3.10;;;2.08;;
22786;SDS011;63134;52.020;4.714;2023-09-07T11:54:56;2.95;;;1.80;;
22786;SDS011;63134;52.020;4.714;2023-09-07T11:57:42;2.03;;;1.40;;
22786;SDS011;63134;52.020;4.714;2023-09-07T12:00:28;1.70;;;1.50;;
22786;SDS011;63134;52.020;4.714;2023-09-07T12:03:16;4.07;;;1.90;;
22786;SDS011;63134;52.020;4.714;2023-09-07T12:06:05;1.98;;;1.77;;
22786;SDS011;63134;52.020;4.714;2023-09-07T12:11:46;1.80;;;1.50;;
22786;SDS011;63134;52.020;4.714;2023-09-07T12:14:32;2.60;;;1.83;;
22786;SDS011;63134;52.020;4.714;2023-09-07T12:17:18;3.63;;;1.92;;
22786;SDS011;63134;52.020;4.714;2023-09-07T12:20:05;1.77;;;1.67;;
22786;SDS011;63134;52.020;4.714;2023-09-07T12:22:57;3.28;;;1.77;;
22786;SDS011;63134;52.020;4.714;2023-09-07T12:25:43;2.08;;;1.88;;
22786;SDS011;63134;52.020;4.714;2023-09-07T12:28:29;1.92;;;1.70;;
22786;SDS011;63134;52.020;4.714;2023-09-07T12:31:16;1.70;;;1.40;;
22786;SDS011;63134;52.020;4.714;2023-09-07T12:34:01;4.05;;;1.65;;
22786;SDS011;63134;52.020;4.714;2023-09-07T12:36:47;5.63;;;1.95;;
22786;SDS011;63134;52.020;4.714;2023-09-07T12:39:34;2.00;;;1.90;;
22786;SDS011;63134;52.020;4.714;2023-09-07T12:42:21;1.98;;;1.50;;
22786;SDS011;63134;52.020;4.714;2023-09-07T12:45:08;1.70;;;1.60;;
22786;SDS011;63134;52.020;4.714;2023-09-07T12:47:54;4.13;;;1.60;;
22786;SDS011;63134;52.020;4.714;2023-09-07T12:50:40;1.92;;;1.70;;
22786;SDS011;63134;52.020;4.714;2023-09-07T12:53:26;2.40;;;1.30;;
22786;SDS011;63134;52.020;4.714;2023-09-07T12:56:11;5.68;;;1.73;;
22786;SDS011;63134;52.020;4.714;2023-09-07T12:58:58;1.55;;;1.42;;
22786;SDS011;63134;52.020;4.714;2023-09-07T13:01:44;1.95;;;1.63;;
22786;SDS011;63134;52.020;4.714;2023-09-07T13:04:32;2.25;;;1.60;;
22786;SDS011;63134;52.020;4.714;2023-09-07T13:07:18;4.10;;;1.98;;
22786;SDS011;63134;52.020;4.714;2023-09-07T13:10:04;2.03;;;1.70;;
22786;SDS011;63134;52.020;4.714;2023-09-07T13:12:50;2.85;;;2.35;;
22786;SDS011;63134;52.020;4.714;2023-09-07T13:15:35;2.10;;;1.90;;
22786;SDS011;63134;52.020;4.714;2023-09-07T13:18:21;2.03;;;1.77;;
22786;SDS011;63134;52.020;4.714;2023-09-07T13:21:09;3.38;;;2.08;;
22786;SDS011;63134;52.020;4.714;2023-09-07T13:23:54;3.15;;;1.85;;
22786;SDS011;63134;52.020;4.714;2023-09-07T13:26:46;1.80;;;1.70;;
22786;SDS011;63134;52.020;4.714;2023-09-07T13:29:32;2.17;;;1.92;;
22786;SDS011;63134;52.020;4.714;2023-09-07T13:32:18;1.75;;;1.58;;
22786;SDS011;63134;52.020;4.714;2023-09-07T13:35:04;2.28;;;1.50;;
22786;SDS011;63134;52.020;4.714;2023-09-07T13:37:50;1.63;;;1.52;;
22786;SDS011;63134;52.020;4.714;2023-09-07T13:40:36;1.85;;;1.70;;
22786;SDS011;63134;52.020;4.714;2023-09-07T13:43:21;1.67;;;1.40;;
22786;SDS011;63134;52.020;4.714;2023-09-07T13:46:11;1.58;;;1.48;;
22786;SDS011;63134;52.020;4.714;2023-09-07T13:49:02;1.90;;;1.80;;
22786;SDS011;63134;52.020;4.714;2023-09-07T13:51:47;2.22;;;1.70;;
22786;SDS011;63134;52.020;4.714;2023-09-07T13:54:35;1.63;;;1.50;;
22786;SDS011;63134;52.020;4.714;2023-09-07T13:57:21;2.50;;;1.77;;
22786;SDS011;63134;52.020;4.714;2023-09-07T14:00:07;1.67;;;1.48;;
22786;SDS011;63134;52.020;4.714;2023-09-07T14:02:53;1.83;;;1.67;;
22786;SDS011;63134;52.020;4.714;2023-09-07T14:05:39;1.85;;;1.50;;
22786;SDS011;63134;52.020;4.714;2023-09-07T14:08:24;2.15;;;1.85;;
22786;SDS011;63134;52.020;4.714;2023-09-07T14:11:12;1.70;;;1.50;;
22786;SDS011;63134;52.020;4.714;2023-09-07T14:14:00;1.67;;;1.58;;
22786;SDS011;63134;52.020;4.714;2023-09-07T14:19:40;2.75;;;1.73;;
22786;SDS011;63134;52.020;4.714;2023-09-07T14:22:27;2.88;;;1.95;;
22786;SDS011;63134;52.020;4.714;2023-09-07T14:25:12;2.00;;;1.50;;
22786;SDS011;63134;52.020;4.714;2023-09-07T14:27:58;2.55;;;1.60;;
22786;SDS011;63134;52.020;4.714;2023-09-07T14:30:47;1.67;;;1.40;;
22786;SDS011;63134;52.020;4.714;2023-09-07T14:33:34;2.60;;;1.83;;
22786;SDS011;63134;52.020;4.714;2023-09-07T14:36:24;2.30;;;1.50;;
22786;SDS011;63134;52.020;4.714;2023-09-07T14:39:10;1.50;;;1.40;;
22786;SDS011;63134;52.020;4.714;2023-09-07T14:41:58;2.20;;;1.83;;
22786;SDS011;63134;52.020;4.714;2023-09-07T14:44:46;2.22;;;1.70;;
22786;SDS011;63134;52.020;4.714;2023-09-07T14:47:32;1.83;;;1.70;;
22786;SDS011;63134;52.020;4.714;2023-09-07T14:50:18;1.50;;;1.30;;
22786;SDS011;63134;52.020;4.714;2023-09-07T14:53:04;2.17;;;2.00;;
22786;SDS011;63134;52.020;4.714;2023-09-07T14:55:51;1.98;;;1.77;;
22786;SDS011;63134;52.020;4.714;2023-09-07T14:58:37;1.77;;;1.67;;
22786;SDS011;63134;52.020;4.714;2023-09-07T15:01:22;3.78;;;1.55;;
22786;SDS011;63134;52.020;4.714;2023-09-07T15:04:08;1.67;;;1.40;;
22786;SDS011;63134;52.020;4.714;2023-09-07T15:06:53;2.92;;;1.90;;
22786;SDS011;63134;52.020;4.714;2023-09-07T15:09:40;4.60;;;1.77;;
22786;SDS011;63134;52.020;4.714;2023-09-07T15:12:25;1.88;;;1.77;;
22786;SDS011;63134;52.020;4.714;2023-09-07T15:15:11;2.67;;;1.75;;
22786;SDS011;63134;52.020;4.714;2023-09-07T15:17:56;2.42;;;1.60;;
22786;SDS011;63134;52.020;4.714;2023-09-07T15:20:42;1.77;;;1.63;;
22786;SDS011;63134;52.020;4.714;2023-09-07T15:23:27;2.25;;;2.05;;
22786;SDS011;63134;52.020;4.714;2023-09-07T15:26:14;1.65;;;1.40;;
22786;SDS011;63134;52.020;4.714;2023-09-07T15:28:59;1.75;;;1.65;;
22786;SDS011;63134;52.020;4.714;2023-09-07T15:31:48;1.63;;;1.52;;
22786;SDS011;63134;52.020;4.714;2023-09-07T15:34:35;1.88;;;1.60;;
22786;SDS011;63134;52.020;4.714;2023-09-07T15:37:20;1.55;;;1.30;;
22786;SDS011;63134;52.020;4.714;2023-09-07T15:40:06;2.13;;;1.70;;
22786;SDS011;63134;52.020;4.714;2023-09-07T15:42:53;1.75;;;1.65;;
22786;SDS011;63134;52.020;4.714;2023-09-07T15:45:39;1.80;;;1.70;;
22786;SDS011;63134;52.020;4.714;2023-09-07T15:48:25;1.55;;;1.45;;
22786;SDS011;63134;52.020;4.714;2023-09-07T15:51:15;2.22;;;1.92;;
22786;SDS011;63134;52.020;4.714;2023-09-07T15:54:04;1.70;;;1.60;;
22786;SDS011;63134;52.020;4.714;2023-09-07T15:56:54;2.28;;;1.88;;
22786;SDS011;63134;52.020;4.714;2023-09-07T15:59:49;1.75;;;1.65;;
22786;SDS011;63134;52.020;4.714;2023-09-07T16:02:34;1.83;;;1.73;;
22786;SDS011;63134;52.020;4.714;2023-09-07T16:05:22;1.50;;;1.30;;
22786;SDS011;63134;52.020;4.714;2023-09-07T16:08:10;2.95;;;1.90;;
22786;SDS011;63134;52.020;4.714;2023-09-07T16:10:58;1.80;;;1.58;;
22786;SDS011;63134;52.020;4.714;2023-09-07T16:13:44;2.88;;;1.60;;
22786;SDS011;63134;52.020;4.714;2023-09-07T16:16:30;1.90;;;1.65;;
22786;SDS011;63134;52.020;4.714;2023-09-07T16:19:19;1.88;;;1.67;;
22786;SDS011;63134;52.020;4.714;2023-09-07T16:22:05;2.65;;;1.63;;
22786;SDS011;63134;52.020;4.714;2023-09-07T16:24:54;1.63;;;1.52;;
22786;SDS011;63134;52.020;4.714;2023-09-07T16:27:40;2.55;;;1.70;;
22786;SDS011;63134;52.020;4.714;2023-09-07T16:30:26;2.15;;;1.73;;
22786;SDS011;63134;52.020;4.714;2023-09-07T16:33:18;1.50;;;1.40;;
22786;SDS011;63134;52.020;4.714;2023-09-07T16:36:07;2.03;;;1.55;;
22786;SDS011;63134;52.020;4.714;2023-09-07T16:38:53;2.03;;;1.55;;
22786;SDS011;63134;52.020;4.714;2023-09-07T16:41:38;1.88;;;1.63;;
22786;SDS011;63134;52.020;4.714;2023-09-07T16:44:24;3.38;;;1.50;;
22786;SDS011;63134;52.020;4.714;2023-09-07T16:47:09;1.70;;;1.60;;
22786;SDS011;63134;52.020;4.714;2023-09-07T16:49:55;1.70;;;1.60;;
22786;SDS011;63134;52.020;4.714;2023-09-07T16:52:41;2.63;;;1.75;;